Spar Draco — LAFO6 — position and weather

sailwx.info

Track history (hours):
 
Tides and Currents Weather Stations Pressure Air Temp Water Temp Dewpoint Dewpoint Depression Visibility Wind Speed Wind Dir Waves Ship Positions

Spar Draco

Last reported at 2016-Sep-07 10:33 UTC. Time now 2016-Sep-30 23:50 UTC.
Position N 29°10' W 119°56'.
Warning: this ship's position is 23 days out of date.

Length 190 m; draft 10.5 m.

Type: Cargo ship. MMSI: 257799000.

Date/timePositionNaut miles runAvg speedWind from/ knotsBaromVisibWave heightAir tempDewpointWater temp
2016-Sep-07 10:33N 29°10' W 119°56'3812.0
2016-Sep-07 07:21N 29°33' W 120°32'4612.1
2016-Sep-07 03:33N 30°00' W 121°14'2411.8
2016-Sep-07 01:32N 30°15' W 121°36'1111.5
2016-Sep-07 00:33N 30°21' W 121°46'2311.5
2016-Sep-06 22:33N 30°36' W 122°07'1211.6
2016-Sep-06 21:30N 30°44' W 122°18'1411.4
2016-Sep-06 20:16N 30°54' W 122°29'911.4
2016-Sep-06 19:26N 31°01' W 122°37'13511.2
2016-Sep-06 07:26N 32°33' W 124°33'  
Track history (hours):
 
Tides and Currents Weather Stations Pressure Air Temp Water Temp Dewpoint Dewpoint Depression Visibility Wind Speed Wind Dir Waves Ship Positions

Spar Draco

Last reported at 2016-Sep-07 10:33 UTC. Time now 2016-Sep-30 23:50 UTC.
Position N 29°10' W 119°56'.
Warning: this ship's position is 23 days out of date.

Length 190 m; draft 10.5 m.

Type: Cargo ship. MMSI: 257799000.

Date/timePositionNaut miles runAvg speedWind from/ knotsBaromVisibWave heightAir tempDewpointWater temp
2016-Sep-07 10:33N 29°10' W 119°56'3812.0
2016-Sep-07 07:21N 29°33' W 120°32'4612.1
2016-Sep-07 03:33N 30°00' W 121°14'2411.8
2016-Sep-07 01:32N 30°15' W 121°36'1111.5
2016-Sep-07 00:33N 30°21' W 121°46'2311.5
2016-Sep-06 22:33N 30°36' W 122°07'1211.6
2016-Sep-06 21:30N 30°44' W 122°18'1411.4
2016-Sep-06 20:16N 30°54' W 122°29'911.4
2016-Sep-06 19:26N 31°01' W 122°37'13511.2
2016-Sep-06 07:26N 32°33' W 124°33'  

Dump ship's entire track history